Bike 2004 Log

    Ride Mileage Riding Time Avg Total Avg Mileage Mileage Mileage Mileage  
Date Location Nbr Rob hh:mm:ss Speed Mileage Mileage Mary Kelly Katie Kerry Comments/Description
01/01/04 Webster Groves/Kirkwood area 1 21.28 1:32:26 13.815 21.28 21.28 0.00 0.00 0.00 0.00 Tue route, loop Mollies Mews, loop KHS, Sherwood.
01/03/04 Webster Groves/Saint Louis City 2 22.72 1:41:34 13.421 44.00 22.00 0.00 0.00 0.00 0.00 Home to Forest Park via Big Bend, Arsenel, Mackland. Some wind, temp 48-50.
01/11/04 South Saint Louis County MO 3 26.27 1:49:47 14.358 70.27 23.42 0.00 0.00 0.00 0.00 Home to Grant's trail, 2 complete loops on trail. Windy, temp 60-63.
01/24/04 Webster Groves/Town & Country 4 31.38 2:18:09 13.630 101.66 25.41 0.00 0.00 0.00 0.00 Home to Longview Farm Park. Loop to Mollie's Mews. Geyer, Clayton, Ballas, Tue route. Temp 32-34.
02/01/04 South Saint Louis MO 5 20.60 1:39:06 12.475 122.26 24.45 0.00 0.00 0.00 0.00 Home to Grant's trail, snow & ice packed, loop around Carondolet Park, stop at Roloff's, home via Loughborough. temp 33-34.
02/08/04 Webster Groves/Kirkwood area 6 21.11 1:38:39 12.840 143.37 23.90 0.00 0.00 0.00 0.00 Ad lib ride around Webster and Kirkwood. temp 32-34.
02/22/04 South Saint Louis County MO 7 26.29 1:49:35 14.395 169.66 24.24 0.00 0.00 0.00 0.00 Home to Grant's trail, 2 complete loops on trail. Some wind, temp 49-50.
02/27/04 South Saint Louis County MO 8 26.26 1:48:33 14.516 195.92 24.49 0.00 0.00 0.00 0.00 Home to Grant's trail, 2 complete loops on trail. Some wind, temp 49-50.
02/28/04 Webster Groves MO 9 10.63 1:12:21 8.812 206.55 22.95 0.00 10.63 0.00 0.00 Nice day, ad lib ride, stop at Stl Bread Co.
03/05/04 South Saint Louis County MO 10 26.30 1:54:20 13.803 232.85 23.29 0.00 0.00 0.00 0.00 Home to Grant's trail, 2 complete loops on trail. With Mike Gawlak. Windy, temp 65-55. Mike had flat tire on rear.
03/06/04 Webster Groves/Town & Country 11 31.19 2:06:31 14.792 264.04 24.00 0.00 0.00 0.00 0.00 Home to Longview Farm Park. Maiden voyage on new Klein road bike. K
03/09/04 South Saint Louis County MO 12 26.21 1:49:33 14.356 290.25 24.19 0.00 0.00 0.00 0.00 Home to Grant's trail, 2 complete loops on trail. Some wind, temp 46.
03/13/04 Webster Groves/Town & Country 13 31.17 2:03:23 15.158 321.42 24.72 0.00 0.00 0.00 0.00 Home to Longview Farm Park. Some wind. K
03/18/04 South Saint Louis County MO 14 26.33 1:53:39 13.902 347.75 24.84 0.00 0.00 0.00 0.00 Home to Grant's trail, 2 complete loops on trail. Some wind, w/Gawlak.
03/20/04 Webster Groves/Saint Louis City 15 31.26 2:08:20 14.615 379.01 25.27 0.00 0.00 0.00 0.00 Downtown via Germania & Broadway, thru Forest Park and home via Maplewood. Nice day but windy. A little rain.
03/27/04 Webster Groves/Saint Louis City 16 41.67 2:56:12 14.191 420.69 26.29 0.00 0.00 0.00 0.00 Downtown via Maplewood and Forest Park, Broadway, Grant's Trail. Stop at Gus's for pretzels.
04/02/04 South Saint Louis County MO 17 30.39 2:09:55 14.035 451.08 26.53 0.00 0.00 0.00 0.00 Home to Grant's trail, 2+ loops on trail. Some wind, w/Gawlak.
04/03/04 Saint Louis County 18 25.63 1:47:04 14.363 476.71 26.48 0.00 0.00 0.00 0.00 Rock Hill, McKnight, Ladue, Mason, Clayton, Ballas. Flat in Kirkwood, ruined tire. Mary retrieved me and bike from Kirkwood (K).
04/06/04 South Saint Louis County MO 19 26.26 1:40:15 15.718 502.97 26.47 0.00 0.00 0.00 0.00 Home to Grant's trail, 2 complete loops on trail. Nice day.
04/08/04 Webster Groves/Town & Country 20 30.07 1:56:49 15.445 533.04 26.65 0.00 0.00 0.00 0.00 Home to Longview Farm Park. Some wind. K
04/11/04 Webster/West St. Louis County 21 40.12 2:35:28 15.484 573.16 27.29 0.00 0.00 0.00 0.00 Loop around Mollie Mews, Adams, Geyer, Clayton Rd, Barb & Mike's, Clayton Rd, Geyer, Doughtery Ferry, Adams + K
04/15/04 South Saint Louis County MO 22 26.26 1:46:55 14.737 599.42 27.25 0.00 0.00 0.00 0.00 Home to Grant's trail, 2 complete loops on trail. Nice, but windy day.
04/17/04 Columbia/Valmeyer IL 23 34.86 2:25:31 14.374 634.28 27.58 0.00 0.00 0.00 0.00 Levee Rd, B Rd, 156. w/Mike Gawlak and Rick Akin. Nice day. K
04/18/04 Webster Groves/Kirkwood area 24 21.05 1:29:39 14.088 655.33 27.31 0.00 0.00 0.00 0.00 Tue route, loop Mollies Mews, loop KHS, Sherwood. With Paul Kelly.
04/21/04 South Saint Louis County MO 25 26.25 1:39:50 15.777 681.58 27.26 0.00 0.00 0.00 0.00 Home to Grant's trail, 2 complete loops on trail. Nice day, some wind.
04/25/04 Webster Groves/Saint Louis MO 26 35.34 2:32:52 13.871 716.92 27.57 0.00 0.00 0.00 0.00 Loop around airport. Midland, Brown Rd, McD Blvd, Banshee, Lindbergh, Natl Bridge, Cypress, Adie, Warson, Woodlawn, Rock Hill.
04/28/04 South Saint Louis County MO 27 26.24 1:43:41 15.185 743.16 27.52 0.00 0.00 0.00 0.00 Home to Grant's trail, 2 complete loops on trail. Nice day, big wind. Eyes hurt.
04/30/04 Webster Groves/Town & Country 28 31.09 1:58:16 15.773 774.25 27.65 0.00 0.00 0.00 0.00 Home to Longview Farm Park. Just beat rain. K
05/05/04 South Saint Louis County MO 29 26.23 1:45:25 14.930 800.48 27.60 0.00 0.00 0.00 0.00 Home to Grant's trail, 2 complete loops on trail. Nice day, w/Mike Gawlak.
05/07/04 Webster Groves/Town & Country 30 30.97 2:00:44 15.391 831.45 27.72 0.00 0.00 0.00 0.00 Home to Longview Farm Park. Warm. K
05/08/04 Webster Groves/Saint Louis City 31 32.90 2:11:00 15.069 864.35 27.88 0.00 0.00 0.00 0.00 Big Bend, Dale, DeMond, Forest Pk, Olive, Loop across Eads Bridge, Broadway, Germania, Murdock, Big Bend. K
05/15/04 Webster Groves/Saint Louis City 32 30.40 1:57:48 15.484 894.75 27.96 0.00 0.00 0.00 0.00 Adams, Ball, Clayton, loop thru Forest Park, home via Maplewood. w/Paul Kelly and bil Kevin. Nice day. K
05/16/04 Columbia/Valmeyer IL 33 34.83 2:20:47 14.844 929.58 28.17 0.00 0.00 0.00 0.00 Levee Rd, B Rd, 156. w/Mike Gawlak and Rick Akin. Foggy and cool at the start. K
05/27/04 South Saint Louis County MO 34 26.25 1:43:03 15.285 955.84 28.11 0.00 0.00 0.00 0.00 Home to Grant's trail, 2 complete loops on trail. Saw black snake on trail. Beat thunder, lightning and rain by 10 minutes.
05/29/04 Webster Groves MO/Chain of Rocks Bridge 35 51.07 3:23:10 15.082 1006.91 28.77 0.00 0.00 0.00 0.00 Big Bend, Murdoch, Chippewa, Watson, Arsenel, Riverfront Trail. Saw 2 baby bunnies and black snake. Windy. K
05/31/04 Webster Groves/Town & Country 36 36.01 2:19:30 15.488 1042.92 28.97 0.00 0.00 0.00 0.00 Loop around Mollie's Mews, Lockwood, Adams, Ballas, Clayton Rd to 141, Clayton to Big Bend, then home. Nice but windy. K
06/02/04 South Saint Louis County MO 37 26.24 1:41:41 15.484 1069.16 28.90 0.00 0.00 0.00 0.00 Home to Grant's trail, 2 complete loops on trail. Rode with Dennis P. for a bit. Nice day.
06/05/04 Stockton State Park to Stockton MO 38 25.61 1:38:29 15.605 1094.77 28.81 0.00 0.00 0.00 0.00 Hiway 215 to Hiway 39. Turn around at Woods Grocery. Crossed bridge .8 mile with nasty expansion joints. Rolling terrain and narrow lanes.
06/06/04 Stockton State Park MO 39 12.03 1:21:31 8.855 1106.80 28.38 0.00 0.00 0.00 0.00 Ride around campground, picnic areas and marina with the girls.
06/08/04 Webster Groves/Town & Country 40 27.02 1:40:54 16.067 1133.82 28.35 0.00 0.00 0.00 0.00 Sherwood, Adams, Ballas, Clayton Rd, Longview Farm, Clayton, Old Warson, Woodlawn. W/Paul Kelly. K
06/11/04 South Saint Louis County MO 41 26.18 1:40:24 15.646 1160.00 28.29 0.00 0.00 0.00 0.00 Home to Grant's trail, 2 complete loops on trail.
06/13/04 Webster Groves/Saint Louis City 42 41.23 2:49:49 14.567 1201.23 28.60 0.00 0.00 0.00 0.00 Edgar, Watson, Heege, Gravois, Germania, Morganford, Holly Hills, Grand, Rusell, around Arch, loop around Forest Park, home thru Maplewood
06/15/04 South Saint Louis County MO 43 26.22 1:40:32 15.649 1227.45 28.55 0.00 0.00 0.00 0.00 Home to Grant's trail, 2 complete loops on trail.
06/19/04 Webster/West St. Louis County 44 50.47 3:12:59 15.692 1277.92 29.04 0.00 0.00 0.00 0.00 Big Bend, Forsyth, Ladue, Babler Rd, Conway, Chesterfield Pkwy, Schoettler, Clayton to Kehrs Mill Rd. Stop at Barb & Mikes. K
06/20/04 Defiance/Augusta MO 45 15.58 1:42:11 9.151 1293.51 28.74 15.58 15.58 15.58 15.58 Father's Day ride on the Katy Trail. Nice day. Defiance to Augusta and back. Kerry on tag-a-long. Montelle Winery afterwards.
06/23/04 Webster Groves/Town & Country 46 32.39 2:05:00 15.547 1325.90 28.82 0.00 0.00 0.00 0.00 Mollie's Mews, Lockwood, Adams, Geyer, Clayton, Mason Ridge, Mason, Ladue, Spoede, Clayton, ?, Litzinger, Brentwood, Elm. K
06/29/04 Webster Groves/Town & Country 47 31.41 1:56:39 16.156 1357.31 28.88 0.00 0.00 0.00 0.00 Rock Hill, McKnight, Ladue, Conway, Mason, Mason Ridge, Clayton, Woods Mill, South outer 40, Clayton, Ballas, Adams, Lockwood, Sherwood. K
07/02/04 South Saint Louis County MO 48 26.20 1:41:09 15.542 1383.51 28.82 0.00 0.00 0.00 0.00 Home to Grant's trail, 2 complete loops on trail. Got drenched at start.
07/03/04 Webster Groves/West County 49 26.55 2:01:35 13.102 1410.06 28.78 0.00 0.00 0.00 0.00 Mollies Mews, Geyer, Clayton, Bopp, Claychester. Rained for several miles before clearing.
07/04/04 Columbia/Waterloo IL 50 35.47 2:31:10 14.079 1445.53 28.91 0.00 0.00 0.00 0.00 D, HH, Waterloo, Floraville Rd, Triple Lakes Rd, Bluffside. W/Mike Gawlak, Rick Akin, Todd & Kim. Saw deer run across highway. K
07/05/04 South Saint Louis County MO 51 26.18 1:40:50 15.578 1471.71 28.86 0.00 0.00 0.00 0.00 Home to Grant's trail, 2 complete loops on trail.
07/10/04 Webster Groves/West County 52 32.90 1:50:39 17.840 1504.61 28.93 0.00 0.00 0.00 0.00 The Hub Sat am ride. Lockwood, Adams, Geyer, Clayton, Mason Ridge, Mason, Conway, Babler, Ladue, Mason, Conway, Spoede, Clayton, Ballas, Adams. 18.2 avg. w/Paul Kelly. K
07/11/04 Columbia/Maeystown IL 53 50.62 3:27:34 14.632 1555.23 29.34 0.00 0.00 0.00 0.00 Levee, B Rd, Bauer, Bluff, climb hill to church. Bluff Rd to Valmeyer, B and Levee home. w/Mike Gawlak, Rick Akin and Todd. K
07/14/04 South Saint Louis County MO 54 26.19 1:42:27 15.339 1581.42 29.29 0.00 0.00 0.00 0.00 Home to Grant's trail, 2 complete loops on trail. Low rear tire, pump it up 3 times on return.
07/17/04 Webster Groves/West County 55 28.89 1:32:59 18.642 1610.31 29.28 0.00 0.00 0.00 0.00 The Hub Sat am ride w/Paul Kelly. K
07/20/04 South Saint Louis County MO 56 26.26 1:36:05 16.398 1636.57 29.22 0.00 0.00 0.00 0.00 Home to Grant's trail, 2 complete loops on trail. New Bontrager Select Invert Hardcase tires 700 x 35c.
07/21/04 Webster Groves MO 57 5.15 0:35:56 8.596 1641.71 28.80 5.15 5.15 5.15 5.15 Home to Hoggabooms for snowcones for Kerry's birthday. Maiden voyage of TREK Mountain Train 201 trailer bike.
07/22/04 Webster Groves/West County 58 31.04 1:53:53 16.354 1672.75 28.84 0.00 0.00 0.00 0.00 Loop around Mollie Mews, Adams, Geyer, Clayton, Mason Ridge, Mason, Clayton, Dulce Pk, Ballas, Adams. K
07/24/04 South Saint Louis County MO 59 26.34 1:39:54 15.820 1699.10 28.80 0.00 0.00 0.00 0.00 Home to Grant's trail, 2 complete loops on trail. Light rain the whole way.
07/27/04 Webster Groves/West County 60 29.10 1:42:53 16.971 1728.20 28.80 0.00 0.00 0.00 0.00 The Hub Sat am route from home. K
08/14/04 Webster Groves/Kirkwood area 61 21.81 1:46:28 12.293 1750.01 28.69 0.00 0.00 0.00 21.81 Tue night route around Webster and Kirkwood. Stopped to visit Leeva. Played at Kirkwood park. Visited Lodholz. Snowcones on return. Trailer bike.
08/15/04 Columbia/Valmeyer IL 62 34.84 2:17:10 15.240 1784.85 28.79 0.00 0.00 0.00 0.00 Levee Rd, B Rd, 156. w/Mike Gawlak, Rick Akin and Todd. Cool at the start. K
08/17/04 South Saint Louis County MO 63 26.26 1:36:31 16.324 1811.11 28.75 0.00 0.00 0.00 0.00 Home to Grant's trail, 2 complete loops on trail. Rode with Craig Johnke a bit.
08/19/04 South Saint Louis County MO 64 15.68 1:10:51 13.277 1826.79 28.54 0.00 0.00 15.68 0.00 Home to Grant's trail, one loop. Stop for snow cones. Rained on a little bit. Trailer bike.
08/21/04 South Saint Louis County MO 65 15.92 1:12:14 13.226 1842.71 28.35 0.00 0.00 0.00 15.92 Home to Grant's trail, one loop. Stop for snow cones. Stop to see Anna B.Trailer bike.
08/22/04 Columbia/Prairie du Rocher IL 66 72.05 4:45:15 15.155 1914.76 29.01 0.00 0.00 0.00 0.00 Bluff, Levee Rd, B Rd, Bauer, Bluff Rd. Lunch at park, sandwiches from AG Market. Foggy foe first few miles. W/Mike Gawlak & Rick Akin.
08/25/04 Webster Groves/Kirkwood area 67 20.54 1:35:47 12.867 1935.30 28.89 0.00 0.00 0.00 20.54 Tue night route around Webster and Kirkwood. Missed rain and thunderstorm by 5 minutes. Trailer bike.
08/26/04 South Saint Louis County MO 68 16.00 1:11:48 13.374 1951.30 28.70 0.00 0.00 16.00 0.00 Home to Grant's trail, one loop. Stop for snow cones. Saw a deer. Trailer bike.
08/28/04 South Saint Louis County MO 69 15.40 1:37:03 9.523 1966.71 28.50 0.00 0.00 15.40 15.40 Home to Grant's trail, one loop. Stop for snow cones. Katie on 24" bike. Trailer bike.
08/29/04 Webster Groves/Granite City IL 70 64.01 3:58:21 16.113 2030.72 29.01 0.00 0.00 0.00 0.00 Met/rode with Jim & Dave up Broadway and Riverfront Trail. Cool and overcast, some N wind.
08/31/04 Webster Groves/West County 71 32.60 1:57:55 16.588 2063.32 29.06 0.00 0.00 0.00 0.00 Loop around Mollies Mews, Geyer, Clayton, Longview Farm Park, Des Peres Rd (38mph), Dougherty Ferry, Big Bend.
09/03/04 Washington State Park/Potosi MO 72 33.57 2:15:23 14.880 2096.89 29.12 0.00 0.00 0.00 0.00 Highway 104, to 21, CC, E. Chased by a dog just north of Potosi. Lots of rolling hills.
09/06/04 Webster Groves/West County 73 32.24 2:00:38 16.035 2129.13 29.17 0.00 0.00 0.00 0.00 Big Bend, Clayton, Conway, Mason, Ladue, Babler, Conway, Mason Ridge, Clayton, Ballas, Adams, Lockwood, Big Bend.
09/10/04 South Saint Louis County MO 74 15.77 1:15:24 12.549 2144.90 28.99 0.00 0.00 0.00 15.77 Home to Grant's trail, one loop. Stop for snow cones. Trailer bike.
09/11/04 Webster Groves/Saint Louis City 75 40.39 2:40:50 15.068 2185.29 29.14 0.00 0.00 0.00 0.00 Heege, Bayless, Broadway, Washinton, Pine, loop Forest Park, Wydown, Clayton, loop Tilles Park, detour on McKnight.
09/13/04 South Saint Louis County MO 76 15.77 1:12:55 12.976 2201.06 28.96 0.00 0.00 0.00 15.77 Home to Grant's trail, one loop. Stop for snow cones. Trailer bike.
09/21/04 Webster Groves/West County 77 28.55 1:50:19 15.528 2229.61 28.96 0.00 0.00 0.00 0.00 Loop Mollies Mews, Clayton Rd, Mason Ridge, Mason, Clayton, Ballas, Adams.
09/23/04 South Saint Louis County MO 78 15.80 1:10:58 13.359 2245.41 28.79 0.00 0.00 15.80 0.00 Home to Grant's trail, one loop. Stop for snow cones. Trailer bike. Lots of bugs.
09/25/04 Webster Groves/far West County 79 53.84 3:29:44 15.402 2299.25 29.10 0.00 0.00 0.00 0.00 Home to Babler State Park and back via Geyer Rd and Clayton Rd. Visited Jedlicka residence on return. Tired legs, suffered on hills.
09/28/04 Webster Groves/West County 80 28.71 1:47:59 15.952 2327.96 29.10 0.00 0.00 0.00 0.00 Loop Mollies Mews, Clayton Rd, Mason Ridge, Mason, Clayton, Ballas, Adams.
09/30/04 South Saint Louis County MO 81 15.88 1:09:56 13.626 2343.84 28.94 0.00 0.00 0.00 15.88 Home to Grant's trail, one loop. Stop for snow cones. Trailer bike. Bugs everywhere.
10/03/04 Columbia/Valmeyer IL 82 41.81 3:00:30 13.898 2385.65 29.09 0.00 0.00 0.00 0.00 D Rd, Trout Camp, Deer Hill and 156. Through new Valmeyer, old Valmeyer, A Rd, B Rd, Levee Rd. Cold at start. W/ Gawlak and Akin on the Mercian touring bike.
10/05/04 Webster Groves/West County 83 32.84 1:59:27 16.496 2418.49 29.14 0.00 0.00 0.00 0.00 Loop Mollies Mews, Clayton Rd, Mason, Conway, Babler, Ladue, Mason, Mason Ridge, Clayton, Ballas, Adams.
10/09/04 Webster Groves MO/Grafton IL 84 116.16 7:10:19 16.196 2534.65 30.17 0.00 0.00 0.00 0.00 Big Bend, Germania, Broadway, Riverfront Trail, COR Bridge, Trail to Alton, Great River Rd. 100 miles in 6:08:53, 16.2. Temp 60-69.
10/16/04 Webster Groves/West County 85 40.82 2:44:00 14.934 2575.47 30.30 0.00 0.00 0.00 0.00 Bopp, Clayton, Mason, stop at Peterson's, Ladue, Ballas, Conway, Babler, Mason Clayton. Windy. Temp 49-55.
10/17/04 South Saint Louis County MO 86 15.80 1:09:57 13.553 2591.27 30.13 0.00 0.00 15.80 0.00 Home to Grant's trail, one loop. Stop for drink at Phillips station. Trailer bike. Some bugs.
10/21/04 South Saint Louis County MO 87 26.19 1:41:20 15.506 2617.46 30.09 0.00 0.00 0.00 0.00 Home to Grant's trail, two loops. Cloudy and cool.
10/23/04 Webster Groves/Kirkwood area 88 21.28 1:45:01 12.160 2638.74 29.99 0.00 0.00 0.00 21.28 Tue night route around Webster and Kirkwood. Played at Kirkwood park. Trailer bike.
10/24/04 Saint Louis City/West County 89 52.77 3:40:47 14.341 2691.52 30.24 0.00 0.00 0.00 0.00 Tour de Fat with Mike Gawlak and Jerry Roloff. Right knee pain. Nice day. Rode to/from Forest Park.
10/29/04 South Saint Louis County MO 90 26.19 1:48:43 14.453 2717.70 30.20 0.00 0.00 0.00 0.00 Home to Grant's trail, two loops. Warm, mid 80's. Some knee pain.
10/31/04 South Saint Louis County MO 91 3.65 0:22:18 9.827 2721.36 29.91 0.00 0.00 0.00 0.00 Short ride on Grant's Trail with Dad on his new TREK 7200 hybrid bike.
11/06/04 Saint Louis City/West County 92 33.89 2:17:41 14.768 2755.25 29.95 0.00 0.00 0.00 0.00 Loop Mollie's Mews, Geyer, Clayton, Longview Farm, Katie's soccer game (her tem won 4-1), home via Clayton, Ballas.
11/13/04 South Saint Louis County MO 93 26.22 1:55:27 13.626 2781.46 29.91 0.00 0.00 0.00 0.00 Home to Grant's trail, two loops. Cool temp 49-50. Some knee pain - lowered seat twice.
11/20/04 South Saint Louis County MO 94 37.80 2:44:37 13.776 2819.26 29.99 0.00 0.00 0.00 0.00 Home to Grant's trail, three loops. Cool temp 51-55, some wind. Little knee pain.
11/25/04 Winfield KS/New Salem KS 95 27.05 1:57:38 13.798 2846.31 29.96 0.00 0.00 0.00 0.00 Parents home to Winfield City Lake and return. Windy.
11/26/04 Winfield KS 96 4.50 0:30:55 8.727 2850.81 29.70 0.00 0.00 0.00 0.00 Loop around fairgrounds with Dad.
11/27/04 Winfield KS/Arkansas City KS 97 26.30 1:47:53 14.627 2877.11 29.66 0.00 0.00 0.00 0.00 Highway 360, new Highway 77, old Highway 77 on return. Windy. Purchased wine for evening meal.
12/04/04 Webster Groves/Saint Louis City 98 37.02 2:31:34 14.655 2914.13 29.74 0.00 0.00 0.00 0.00 Home to the Arch, Forest Park, then home through Maplewood. Suffering from a cold.
12/12/04 West St. Louis County/St. Albans 99 37.66 2:28:56 15.174 2951.79 29.82 0.00 0.00 0.00 0.00 Smokehouse to St. Albans the aesy way. Used Edison Ave. 2 loops around pond, stop at Heads store. Windy, 49-50. 37 mph max.
12/18/04 Webster Groves/Saint Louis City 100 34.67 2:19:04 14.958 2986.46 29.86 0.00 0.00 0.00 0.00 Home to Forest Park, the Arch, then home.
12/27/04 South Saint Louis County MO 101 26.22 1:43:41 15.172 3012.68 29.83 0.00 0.00 0.00 0.00 Home to Grant's trail, two loops. Cool and windy.
12/31/04 Winfield KS 102 4.43 0:33:36 7.903 3017.11 29.58 0.00 0.00 0.00 0.00 Ride with Dad to Broadway Recreation Complex and back.
Total Mileage 3017.11 205:33:56 20.73 31.36 99.42 163.12
Target Mileage 1000.00
Percent Complete 301.7%
Copyright 2004-2004 Robert P. Anderson
robertpanderson.com
Page Last Updated: 01/02/2005 at 22:55:32